createdAt,value
2023-01-25T00:00:11.359Z,99.90
2023-01-25T00:02:39.711Z,99.90
2023-01-25T00:05:08.646Z,99.90
2023-01-25T00:07:36.928Z,99.90
2023-01-25T00:10:05.427Z,99.90
2023-01-25T00:12:33.723Z,99.90
2023-01-25T00:15:01.891Z,99.90
2023-01-25T00:17:30.261Z,99.90
2023-01-25T00:19:58.569Z,99.90
2023-01-25T00:22:27.115Z,99.90
2023-01-25T00:24:55.208Z,99.90
2023-01-25T00:27:23.532Z,99.90
2023-01-25T00:29:51.880Z,99.90
2023-01-25T00:32:20.211Z,99.90
2023-01-25T00:34:52.278Z,99.90
2023-01-25T00:37:52.850Z,99.90
2023-01-25T00:40:21.283Z,99.90
2023-01-25T00:42:49.492Z,99.90
2023-01-25T00:45:17.751Z,99.90
2023-01-25T00:47:46.091Z,99.90
2023-01-25T00:50:14.415Z,99.90
2023-01-25T00:52:42.843Z,99.90
2023-01-25T00:55:11.325Z,99.90
2023-01-25T00:57:39.546Z,99.90
2023-01-25T01:00:08.595Z,99.90
2023-01-25T01:02:36.986Z,99.90
2023-01-25T01:05:05.670Z,99.90
2023-01-25T01:07:34.229Z,99.90
2023-01-25T01:10:02.606Z,99.90
2023-01-25T01:12:30.887Z,99.90
2023-01-25T01:14:59.220Z,99.90
2023-01-25T01:17:27.710Z,99.90
2023-01-25T01:19:55.866Z,99.90
2023-01-25T01:22:24.665Z,99.90
2023-01-25T01:24:53.007Z,99.90
2023-01-25T01:27:21.417Z,99.90
2023-01-25T01:29:49.862Z,99.90
2023-01-25T01:32:18.141Z,99.90
2023-01-25T01:34:46.444Z,99.90
2023-01-25T01:37:14.731Z,99.90
2023-01-25T01:39:43.172Z,99.90
2023-01-25T01:42:11.302Z,99.90
2023-01-25T01:44:58.411Z,99.90
2023-01-25T01:47:35.224Z,99.90
2023-01-25T01:50:28.960Z,99.90
2023-01-25T01:52:57.630Z,99.90
2023-01-25T01:55:25.757Z,99.90
2023-01-25T01:57:59.988Z,99.90
2023-01-25T02:00:34.894Z,99.90
2023-01-25T02:03:03.336Z,99.90
2023-01-25T02:05:41.441Z,99.90
2023-01-25T02:08:14.098Z,99.90
2023-01-25T02:10:43.549Z,99.90
2023-01-25T02:13:11.873Z,99.90
2023-01-25T02:15:47.622Z,99.90
2023-01-25T02:18:17.904Z,99.90
2023-01-25T02:20:47.890Z,99.90
2023-01-25T02:23:22.120Z,99.90
2023-01-25T02:25:50.637Z,99.90
2023-01-25T02:28:23.778Z,99.90
2023-01-25T02:30:52.229Z,99.90
2023-01-25T02:33:23.344Z,99.90
2023-01-25T02:35:57.196Z,99.90
2023-01-25T02:38:25.780Z,99.90
2023-01-25T02:40:58.266Z,99.90
2023-01-25T02:43:34.912Z,99.90
2023-01-25T02:46:21.772Z,99.90
2023-01-25T02:48:50.138Z,99.90
2023-01-25T02:51:18.502Z,99.90
2023-01-25T02:53:47.866Z,99.90
2023-01-25T02:56:17.128Z,99.90
2023-01-25T02:58:46.289Z,99.90
2023-01-25T03:01:15.494Z,99.90
2023-01-25T03:03:43.791Z,99.90
2023-01-25T03:06:12.127Z,99.90
2023-01-25T03:08:42.344Z,99.90
2023-01-25T03:11:10.772Z,99.90
2023-01-25T03:13:39.686Z,99.90
2023-01-25T03:16:10.907Z,99.90
2023-01-25T03:18:42.061Z,99.90
2023-01-25T03:21:18.683Z,99.90
2023-01-25T03:23:48.394Z,99.90
2023-01-25T03:26:23.668Z,99.90
2023-01-25T03:29:17.656Z,99.90
2023-01-25T03:31:48.817Z,99.90
2023-01-25T03:34:17.132Z,99.90
2023-01-25T03:36:45.460Z,99.90
2023-01-25T03:39:15.760Z,99.90
2023-01-25T03:41:44.769Z,99.90
2023-01-25T03:44:15.061Z,99.90
2023-01-25T03:46:45.623Z,99.90
2023-01-25T03:49:14.153Z,99.90
2023-01-25T03:51:42.644Z,99.90
2023-01-25T03:54:11.351Z,99.90
2023-01-25T03:56:39.638Z,99.90
2023-01-25T03:59:13.326Z,99.90
2023-01-25T04:01:41.653Z,99.90
2023-01-25T04:04:09.899Z,99.90
2023-01-25T04:06:40.582Z,99.90
2023-01-25T04:09:09.188Z,99.90
2023-01-25T04:11:44.170Z,99.90
2023-01-25T04:14:13.951Z,99.90
2023-01-25T04:16:49.277Z,99.90
2023-01-25T04:19:37.795Z,99.90
2023-01-25T04:22:10.039Z,99.90
2023-01-25T04:24:39.758Z,99.90
2023-01-25T04:27:09.641Z,99.90
2023-01-25T04:29:46.466Z,99.90
2023-01-25T04:32:19.685Z,99.90
2023-01-25T04:34:48.177Z,99.90
2023-01-25T04:37:21.175Z,99.90
2023-01-25T04:39:56.854Z,99.90
2023-01-25T04:42:25.841Z,99.90
2023-01-25T04:44:56.958Z,99.90
2023-01-25T04:47:25.522Z,99.90
2023-01-25T04:49:53.864Z,99.90
2023-01-25T04:52:25.775Z,99.90
2023-01-25T04:54:54.093Z,99.90
2023-01-25T04:57:23.525Z,99.90
2023-01-25T04:59:53.921Z,99.90
2023-01-25T05:02:24.378Z,99.90
2023-01-25T05:04:53.832Z,99.90
2023-01-25T05:07:22.854Z,99.90
2023-01-25T05:09:51.082Z,99.90
2023-01-25T05:12:21.379Z,99.90
2023-01-25T05:14:57.945Z,99.90
2023-01-25T05:17:26.467Z,99.90
2023-01-25T05:19:54.888Z,99.90
2023-01-25T05:22:24.904Z,99.90
2023-01-25T05:24:54.993Z,99.90
2023-01-25T05:27:25.852Z,99.90
2023-01-25T05:29:54.542Z,99.90
2023-01-25T05:32:39.269Z,99.90
2023-01-25T05:35:08.160Z,99.90
2023-01-25T05:37:36.757Z,99.90
2023-01-25T05:40:09.302Z,99.90
2023-01-25T05:42:40.052Z,99.90
2023-01-25T05:45:14.994Z,99.90
2023-01-25T05:47:46.139Z,99.90
2023-01-25T05:50:14.681Z,99.90
2023-01-25T05:52:54.691Z,99.90
2023-01-25T05:55:23.157Z,99.90
2023-01-25T05:57:56.802Z,99.90
2023-01-25T06:00:25.646Z,99.90
2023-01-25T06:02:53.841Z,99.90
2023-01-25T06:05:25.487Z,99.90
2023-01-25T06:07:53.852Z,99.90
2023-01-25T06:10:24.771Z,99.90
2023-01-25T06:12:59.213Z,99.90
2023-01-25T06:15:28.172Z,99.90
2023-01-25T06:18:05.066Z,99.90
2023-01-25T06:20:49.146Z,99.90
2023-01-25T06:23:17.975Z,99.90
2023-01-25T06:25:46.121Z,99.90
2023-01-25T06:28:14.347Z,99.90
2023-01-25T06:30:43.141Z,99.90
2023-01-25T06:33:11.410Z,99.90
2023-01-25T06:35:39.705Z,99.90
2023-01-25T06:38:08.298Z,99.90
2023-01-25T06:40:36.648Z,99.90
2023-01-25T06:43:12.402Z,99.90
2023-01-25T06:45:40.670Z,99.90
2023-01-25T06:48:09.032Z,99.90
2023-01-25T06:50:37.394Z,99.90
2023-01-25T06:53:05.704Z,99.90
2023-01-25T06:55:34.008Z,99.90
2023-01-25T06:58:02.888Z,99.90
2023-01-25T07:00:31.372Z,99.90
2023-01-25T07:02:59.514Z,99.90
2023-01-25T07:05:27.899Z,99.90
2023-01-25T07:07:56.101Z,99.90
2023-01-25T07:10:24.255Z,99.90
2023-01-25T07:12:52.727Z,99.90
2023-01-25T07:15:20.844Z,99.90
2023-01-25T07:17:49.127Z,99.90
2023-01-25T07:20:17.703Z,99.90
2023-01-25T07:22:45.888Z,99.90
2023-01-25T07:25:15.503Z,99.90
2023-01-25T07:27:43.562Z,99.90
2023-01-25T07:30:12.326Z,99.90
2023-01-25T07:32:40.600Z,99.90
2023-01-25T07:35:09.510Z,99.90
2023-01-25T07:37:38.396Z,99.90
2023-01-25T07:40:06.996Z,99.90
2023-01-25T07:42:35.177Z,99.90
2023-01-25T07:45:14.203Z,99.90
2023-01-25T07:47:42.531Z,99.90
2023-01-25T07:50:12.274Z,99.90
2023-01-25T07:52:40.676Z,99.90
2023-01-25T07:55:09.435Z,99.90
2023-01-25T07:57:37.890Z,99.90
2023-01-25T08:00:06.630Z,99.90
2023-01-25T08:02:40.551Z,99.90
2023-01-25T08:05:09.578Z,99.90
2023-01-25T08:07:37.951Z,99.90
2023-01-25T08:10:06.817Z,99.90
2023-01-25T08:12:35.987Z,99.90
2023-01-25T08:15:04.507Z,99.90
2023-01-25T08:17:32.895Z,99.90
2023-01-25T08:20:02.016Z,99.90
2023-01-25T08:22:30.323Z,99.90
2023-01-25T08:24:58.613Z,99.90
2023-01-25T08:27:28.066Z,99.90
2023-01-25T08:29:56.327Z,99.90
2023-01-25T08:32:24.744Z,99.90
2023-01-25T08:34:53.138Z,99.90
2023-01-25T08:37:21.346Z,99.90
2023-01-25T08:39:49.702Z,99.90
2023-01-25T08:42:17.974Z,99.90
2023-01-25T08:44:46.303Z,99.90
2023-01-25T08:47:15.027Z,99.90
2023-01-25T08:49:44.692Z,99.90
2023-01-25T08:52:12.933Z,99.90
2023-01-25T08:54:41.489Z,99.90
2023-01-25T08:57:10.390Z,99.90
2023-01-25T08:59:38.657Z,99.90
2023-01-25T09:02:07.120Z,99.90
2023-01-25T09:04:35.389Z,99.90
2023-01-25T09:07:03.595Z,99.90
2023-01-25T09:09:31.883Z,99.90
2023-01-25T09:12:01.965Z,99.90
2023-01-25T09:14:30.317Z,99.90
2023-01-25T09:16:58.533Z,99.90
2023-01-25T09:19:26.931Z,99.90
2023-01-25T09:21:55.308Z,99.90
2023-01-25T09:24:23.635Z,99.90
2023-01-25T09:26:59.458Z,99.90
2023-01-25T09:29:28.379Z,99.90
2023-01-25T09:31:56.774Z,99.90
2023-01-25T09:34:36.042Z,99.90
2023-01-25T09:37:04.458Z,99.90
2023-01-25T09:39:32.697Z,99.90
2023-01-25T09:42:36.334Z,99.90
2023-01-25T09:45:17.482Z,99.90
2023-01-25T09:47:57.480Z,99.90
2023-01-25T09:50:36.393Z,99.90
2023-01-25T09:53:16.576Z,99.90
2023-01-25T09:55:45.914Z,99.90
2023-01-25T09:58:20.549Z,99.90
2023-01-25T10:00:55.428Z,99.90
2023-01-25T10:03:31.805Z,99.90
2023-01-25T10:06:02.288Z,99.90
2023-01-25T10:08:56.283Z,99.90
2023-01-25T10:11:28.326Z,99.90
2023-01-25T10:13:58.289Z,99.90
2023-01-25T10:16:47.013Z,99.90
2023-01-25T10:19:32.423Z,99.90
2023-01-25T10:22:16.153Z,99.90
2023-01-25T10:24:52.076Z,99.90
2023-01-25T10:27:29.046Z,99.90
2023-01-25T10:30:01.156Z,99.90
2023-01-25T10:32:31.372Z,99.90
2023-01-25T10:35:19.707Z,99.90
2023-01-25T10:37:55.738Z,99.90
2023-01-25T10:40:27.500Z,99.90
2023-01-25T10:43:08.596Z,99.90
2023-01-25T10:45:36.795Z,99.90
2023-01-25T10:48:10.118Z,99.90
2023-01-25T10:50:41.304Z,99.90
2023-01-25T10:53:23.772Z,99.90
2023-01-25T10:56:10.049Z,99.90
2023-01-25T10:58:41.417Z,99.90
2023-01-25T11:01:13.370Z,99.90
2023-01-25T11:03:43.879Z,99.90
2023-01-25T11:06:13.012Z,99.90
2023-01-25T11:08:43.440Z,99.90
2023-01-25T11:11:37.216Z,99.90
2023-01-25T11:14:23.500Z,99.80
2023-01-25T11:16:51.876Z,98.50
2023-01-25T11:19:38.656Z,98.80
2023-01-25T11:22:27.134Z,98.60
2023-01-25T11:24:55.381Z,99.30
2023-01-25T11:27:28.548Z,98.90
2023-01-25T11:30:16.694Z,99.40
2023-01-25T11:32:45.151Z,99.90
2023-01-25T11:35:15.779Z,99.90
2023-01-25T11:38:11.714Z,99.90
2023-01-25T11:41:06.862Z,99.90
2023-01-25T11:44:02.490Z,99.90
2023-01-25T11:46:49.501Z,99.90
2023-01-25T11:49:38.845Z,99.90
2023-01-25T11:52:19.551Z,99.90
2023-01-25T11:55:07.935Z,99.90
2023-01-25T11:57:54.870Z,99.90
2023-01-25T12:00:30.702Z,99.90
2023-01-25T12:03:20.849Z,99.90
2023-01-25T12:06:03.943Z,99.90
2023-01-25T12:08:44.532Z,99.90
2023-01-25T12:11:31.321Z,99.90
2023-01-25T12:14:21.005Z,99.90
2023-01-25T12:17:10.900Z,99.90
2023-01-25T12:19:59.054Z,99.90
2023-01-25T12:23:00.948Z,99.90
2023-01-25T12:25:50.636Z,99.90
2023-01-25T12:28:18.943Z,99.90
2023-01-25T12:31:12.800Z,99.90
2023-01-25T12:34:01.872Z,99.90
2023-01-25T12:36:45.255Z,99.90
2023-01-25T12:39:37.533Z,99.90
2023-01-25T12:42:20.154Z,99.90
2023-01-25T12:45:22.940Z,99.90
2023-01-25T12:48:52.616Z,99.90
2023-01-25T12:51:24.097Z,99.90
2023-01-25T12:53:53.831Z,99.90
2023-01-25T12:56:34.929Z,99.90
2023-01-25T12:59:34.515Z,99.90
2023-01-25T13:02:29.842Z,99.90
2023-01-25T13:05:04.217Z,99.90
2023-01-25T13:07:45.015Z,99.90
2023-01-25T13:10:19.188Z,99.90
2023-01-25T13:12:59.129Z,99.90
2023-01-25T13:15:44.796Z,99.90
2023-01-25T13:18:31.189Z,99.90
2023-01-25T13:21:01.716Z,99.90
2023-01-25T13:23:44.700Z,99.90
2023-01-25T13:26:39.836Z,99.90
2023-01-25T13:29:37.084Z,99.90
2023-01-25T13:32:11.329Z,99.90
2023-01-25T13:34:42.882Z,99.90
2023-01-25T13:37:32.164Z,99.90
2023-01-25T13:40:26.043Z,99.90
2023-01-25T13:43:13.437Z,99.90
2023-01-25T13:45:43.517Z,99.90
2023-01-25T13:48:21.500Z,99.90
2023-01-25T13:51:13.223Z,99.90
2023-01-25T13:53:41.511Z,99.90
2023-01-25T13:56:28.165Z,99.90
2023-01-25T13:58:56.389Z,99.90
2023-01-25T14:01:25.161Z,99.90
2023-01-25T14:04:05.853Z,99.90
2023-01-25T14:06:38.571Z,99.90
2023-01-25T14:09:20.533Z,99.90
2023-01-25T14:12:01.180Z,99.90
2023-01-25T14:14:36.594Z,99.90
2023-01-25T14:17:24.953Z,99.90
2023-01-25T14:19:56.834Z,99.90
2023-01-25T14:22:31.432Z,99.90
2023-01-25T14:25:07.979Z,99.90
2023-01-25T14:27:57.631Z,99.90
2023-01-25T14:30:31.724Z,99.90
2023-01-25T14:33:16.318Z,99.90
2023-01-25T14:36:01.695Z,99.90
2023-01-25T14:38:39.180Z,99.90
2023-01-25T14:41:21.919Z,99.90
2023-01-25T14:43:53.788Z,99.90
2023-01-25T14:46:29.000Z,99.90
2023-01-25T14:49:13.552Z,99.90
2023-01-25T14:52:04.540Z,99.90
2023-01-25T14:54:38.432Z,99.90
2023-01-25T14:57:08.809Z,99.90
2023-01-25T14:59:40.938Z,99.90
2023-01-25T15:02:26.008Z,99.90
2023-01-25T15:05:00.762Z,99.90
2023-01-25T15:07:47.585Z,99.90
2023-01-25T15:10:30.210Z,99.90
2023-01-25T15:13:15.350Z,99.90
2023-01-25T15:16:03.629Z,99.90
2023-01-25T15:18:47.179Z,99.90
2023-01-25T15:21:34.491Z,99.90
2023-01-25T15:24:06.406Z,99.90
2023-01-25T15:26:36.658Z,99.90
2023-01-25T15:29:17.265Z,99.90
2023-01-25T15:31:45.614Z,99.90
2023-01-25T15:34:22.694Z,99.90
2023-01-25T15:36:50.932Z,99.90
2023-01-25T15:39:20.688Z,99.90
2023-01-25T15:41:49.541Z,99.90
2023-01-25T15:44:17.745Z,99.90
2023-01-25T15:46:50.868Z,99.90
2023-01-25T15:49:30.406Z,99.90
2023-01-25T15:51:58.732Z,99.90
2023-01-25T15:54:27.017Z,99.90
2023-01-25T15:57:00.564Z,99.90
2023-01-25T15:59:29.222Z,99.90
2023-01-25T16:01:57.459Z,99.90
2023-01-25T16:04:25.707Z,99.90
2023-01-25T16:06:55.371Z,99.90
2023-01-25T16:09:28.792Z,99.90
2023-01-25T16:11:59.292Z,99.90
2023-01-25T16:14:29.218Z,99.90
2023-01-25T16:17:04.808Z,99.90
2023-01-25T16:19:34.173Z,99.90
2023-01-25T16:22:02.455Z,99.90
2023-01-25T16:24:30.714Z,99.90
2023-01-25T16:27:01.248Z,99.90
2023-01-25T16:29:29.739Z,99.90
2023-01-25T16:31:58.133Z,99.90
2023-01-25T16:34:26.677Z,99.90
2023-01-25T16:36:55.131Z,99.90
2023-01-25T16:39:25.809Z,99.90
2023-01-25T16:41:54.134Z,99.90
2023-01-25T16:44:22.697Z,99.90
2023-01-25T16:46:51.545Z,99.90
2023-01-25T16:49:23.039Z,99.90
2023-01-25T16:51:51.457Z,99.90
2023-01-25T16:54:21.315Z,99.90
2023-01-25T16:56:50.877Z,99.90
2023-01-25T16:59:22.219Z,99.90
2023-01-25T17:01:50.623Z,99.90
2023-01-25T17:04:20.089Z,99.90
2023-01-25T17:06:50.446Z,99.90
2023-01-25T17:09:25.434Z,99.90
2023-01-25T17:11:55.220Z,99.90
2023-01-25T17:14:24.120Z,99.90
2023-01-25T17:16:52.427Z,99.90
2023-01-25T17:19:20.970Z,99.90
2023-01-25T17:21:49.485Z,99.90
2023-01-25T17:24:19.944Z,99.90
2023-01-25T17:26:48.415Z,99.90
2023-01-25T17:29:16.712Z,99.90
2023-01-25T17:31:45.118Z,99.90
2023-01-25T17:34:15.497Z,99.90
2023-01-25T17:36:45.492Z,99.90
2023-01-25T17:39:15.804Z,99.90
2023-01-25T17:41:45.124Z,99.90
2023-01-25T17:44:14.624Z,99.90
2023-01-25T17:46:43.014Z,99.90
2023-01-25T17:49:13.101Z,99.90
2023-01-25T17:51:41.543Z,99.90
2023-01-25T17:54:10.670Z,99.90
2023-01-25T17:56:39.706Z,99.90
2023-01-25T17:59:08.941Z,99.90
2023-01-25T18:01:37.356Z,99.90
2023-01-25T18:04:08.525Z,99.90
2023-01-25T18:06:37.673Z,99.90
2023-01-25T18:09:06.452Z,99.90
2023-01-25T18:11:37.806Z,99.90
2023-01-25T18:14:09.328Z,99.90
2023-01-25T18:16:39.903Z,99.90
2023-01-25T18:19:09.316Z,99.90
2023-01-25T18:21:38.671Z,99.90
2023-01-25T18:24:15.716Z,99.90
2023-01-25T18:26:44.187Z,99.90
2023-01-25T18:29:15.318Z,99.90
2023-01-25T18:31:43.771Z,99.90
2023-01-25T18:34:12.124Z,99.90
2023-01-25T18:36:40.568Z,99.90
2023-01-25T18:39:10.819Z,99.90
2023-01-25T18:41:39.139Z,99.90
2023-01-25T18:44:07.546Z,99.90
2023-01-25T18:46:35.963Z,99.90
2023-01-25T18:49:04.451Z,99.90
2023-01-25T18:51:33.752Z,99.90
2023-01-25T18:54:03.397Z,99.90
2023-01-25T18:56:31.590Z,99.90
2023-01-25T18:58:59.940Z,99.90
2023-01-25T19:01:28.210Z,99.90
2023-01-25T19:03:56.557Z,99.90
2023-01-25T19:06:25.772Z,99.90
2023-01-25T19:08:54.059Z,99.90
2023-01-25T19:11:24.080Z,99.90
2023-01-25T19:13:53.089Z,99.90
2023-01-25T19:16:23.615Z,99.90
2023-01-25T19:18:53.941Z,99.90
2023-01-25T19:21:27.311Z,99.90
2023-01-25T19:23:56.808Z,99.90
2023-01-25T19:26:26.098Z,99.90
2023-01-25T19:28:54.905Z,99.90
2023-01-25T19:31:28.157Z,99.90
2023-01-25T19:33:58.803Z,99.90
2023-01-25T19:36:28.125Z,99.90
2023-01-25T19:38:56.670Z,99.90
2023-01-25T19:41:27.898Z,99.90
2023-01-25T19:44:01.226Z,99.90
2023-01-25T19:46:37.178Z,99.90
2023-01-25T19:49:07.991Z,99.90
2023-01-25T19:51:38.759Z,99.90
2023-01-25T19:54:14.324Z,99.90
2023-01-25T19:56:43.609Z,99.90
2023-01-25T19:59:23.555Z,99.90
2023-01-25T20:01:52.126Z,99.90
2023-01-25T20:04:22.505Z,99.90
2023-01-25T20:06:51.783Z,99.90
2023-01-25T20:09:21.074Z,99.90
2023-01-25T20:11:49.492Z,99.90
2023-01-25T20:14:17.784Z,99.90
2023-01-25T20:16:46.010Z,99.90
2023-01-25T20:19:14.448Z,99.90
2023-01-25T20:21:42.738Z,99.90
2023-01-25T20:24:11.318Z,99.90
2023-01-25T20:26:41.462Z,99.90
2023-01-25T20:29:11.122Z,99.90
2023-01-25T20:31:44.890Z,99.90
2023-01-25T20:34:21.891Z,99.90
2023-01-25T20:36:51.295Z,99.90
2023-01-25T20:39:21.568Z,99.90
2023-01-25T20:41:50.166Z,99.90
2023-01-25T20:44:18.586Z,99.90
2023-01-25T20:46:47.168Z,99.90
2023-01-25T20:49:17.279Z,99.90
2023-01-25T20:51:46.758Z,99.90
2023-01-25T20:54:15.683Z,99.90
2023-01-25T20:56:44.059Z,99.90
2023-01-25T20:59:12.367Z,99.90
2023-01-25T21:01:40.698Z,99.90
2023-01-25T21:04:09.206Z,99.90
2023-01-25T21:06:37.541Z,99.90
2023-01-25T21:09:05.944Z,99.90
2023-01-25T21:11:35.108Z,99.90
2023-01-25T21:18:02.920Z,99.90
2023-01-25T21:20:31.282Z,99.90
2023-01-25T21:22:59.520Z,99.90
2023-01-25T21:25:27.796Z,99.90
2023-01-25T21:27:56.089Z,99.90
2023-01-25T21:30:24.402Z,99.90
2023-01-25T21:32:55.488Z,99.90
2023-01-25T21:35:23.820Z,99.90
2023-01-25T21:37:53.172Z,99.90
2023-01-25T21:40:21.659Z,99.90
2023-01-25T21:42:49.880Z,99.90
2023-01-25T21:45:18.418Z,99.90
2023-01-25T21:47:46.756Z,99.90
2023-01-25T21:50:14.967Z,99.90
2023-01-25T21:52:43.236Z,99.90
2023-01-25T21:55:11.979Z,99.90
2023-01-25T21:57:40.369Z,99.90
2023-01-25T22:00:09.430Z,99.90
2023-01-25T22:02:37.940Z,99.90
2023-01-25T22:05:07.399Z,99.90
2023-01-25T22:07:35.700Z,99.90
2023-01-25T22:10:04.127Z,99.90
2023-01-25T22:12:32.354Z,99.90
2023-01-25T22:15:00.615Z,99.90
2023-01-25T22:17:29.402Z,99.90
2023-01-25T22:19:57.890Z,99.90
2023-01-25T22:22:26.109Z,99.90
2023-01-25T22:24:54.425Z,99.90
2023-01-25T22:27:51.233Z,99.90
2023-01-25T22:30:19.507Z,99.90
2023-01-25T22:32:47.890Z,99.90
2023-01-25T22:35:16.253Z,99.90
2023-01-25T22:37:44.361Z,99.90
2023-01-25T22:40:13.430Z,99.90
2023-01-25T22:42:41.776Z,99.90
2023-01-25T22:45:10.344Z,99.90
2023-01-25T22:47:38.538Z,99.90
2023-01-25T22:50:07.344Z,99.90
2023-01-25T22:52:35.710Z,99.90
2023-01-25T22:55:04.062Z,99.90
2023-01-25T22:57:32.156Z,99.90
2023-01-25T23:00:00.560Z,99.90
2023-01-25T23:02:28.690Z,99.90
2023-01-25T23:04:57.046Z,99.90
2023-01-25T23:07:25.355Z,99.90
2023-01-25T23:09:53.571Z,99.90
2023-01-25T23:12:23.461Z,99.90
2023-01-25T23:14:51.878Z,99.90
2023-01-25T23:17:22.168Z,99.90
2023-01-25T23:19:50.345Z,99.90
2023-01-25T23:22:18.670Z,99.90
2023-01-25T23:24:46.887Z,99.90
2023-01-25T23:27:15.108Z,99.90
2023-01-25T23:29:43.465Z,99.90
2023-01-25T23:32:11.598Z,99.90
2023-01-25T23:34:39.987Z,99.90
2023-01-25T23:37:08.510Z,99.90
2023-01-25T23:39:36.737Z,99.90
2023-01-25T23:42:05.378Z,99.90
2023-01-25T23:44:33.679Z,99.90
2023-01-25T23:47:02.103Z,99.90
2023-01-25T23:49:30.360Z,99.90
2023-01-25T23:51:58.740Z,99.90
2023-01-25T23:54:26.964Z,99.90
2023-01-25T23:56:55.464Z,99.90
2023-01-25T23:59:25.183Z,99.90
